Time;durP1;ratioP1;P1;durP2;ratioP2;P2;SDS_P1;SDS_P2;PMS_P1;PMS_P2;Temp;Humidity;BMP_temperature;BMP_pressure;BME280_temperature;BME280_humidity;BME280_pressure;Samples;Min_cycle;Max_cycle;Signal;HPM_P1;HPM_P2
2022/03/30 00:02:20;;;;;;;8.95;4.47;;;5.30;99.90;;;;;;5050741;28;20090;-88
2022/03/30 00:05:39;;;;;;;12.07;5.20;;;5.30;99.90;;;;;;5052886;28;20041;-88
2022/03/30 00:08:52;;;;;;;13.20;4.65;;;5.30;99.90;;;;;;5054612;28;20128;-87
2022/03/30 00:12:04;;;;;;;;;;;;;;;;;;;;;
2022/03/30 00:15:32;;;;;;;9.93;5.22;;;5.90;99.90;;;;;;5060654;28;20433;-87
2022/03/30 00:18:28;;;;;;;8.60;4.43;;;5.20;99.90;;;;;;5062065;28;20056;-88
2022/03/30 00:29:10;;;;;;;;;;;;;;;;;;;;;
2022/03/30 00:32:24;;;;;;;;;;;;;;;;;;;;;
2022/03/30 00:35:22;;;;;;;;;;;;;;;;;;;;;
2022/03/30 00:38:40;;;;;;;11.82;5.38;;;5.20;99.90;;;;;;5067758;28;20422;-88
2022/03/30 00:42:08;;;;;;;;;;;;;;;;;;;;;
2022/03/30 00:45:26;;;;;;;;;;;;;;;;;;;;;
2022/03/30 00:48:26;;;;;;;11.43;4.68;;;5.50;99.90;;;;;;5066979;28;20058;-88
2022/03/30 00:51:36;;;;;;;;;;;;;;;;;;;;;
2022/03/30 00:54:45;;;;;;;8.35;4.07;;;5.30;99.90;;;;;;5080820;28;20037;-88
2022/03/30 00:58:12;;;;;;;13.45;4.38;;;5.30;99.90;;;;;;5088374;28;20040;-87
2022/03/30 01:01:23;;;;;;;8.65;4.22;;;5.30;99.90;;;;;;5091667;28;20074;-87
2022/03/30 01:04:37;;;;;;;9.60;4.85;;;5.30;99.90;;;;;;5070580;28;20410;-87
2022/03/30 01:11:14;;;;;;;11.00;5.20;;;5.30;99.90;;;;;;5089320;28;20448;-87
2022/03/30 01:14:43;;;;;;;12.05;5.25;;;5.30;99.90;;;;;;5091723;28;20036;-87
2022/03/30 01:17:57;;;;;;;9.93;4.40;;;5.30;99.90;;;;;;5064845;28;20121;-87
2022/03/30 01:20:54;;;;;;;9.32;4.57;;;5.90;99.90;;;;;;5044039;28;20132;-87
2022/03/30 01:24:00;;;;;;;;;;;;;;;;;;;;;
2022/03/30 01:27:04;;;;;;;10.13;4.65;;;5.00;99.90;;;;;;5036899;28;20043;-85
2022/03/30 01:33:57;;;;;;;7.78;4.18;;;5.40;99.90;;;;;;5044195;28;20087;-84
2022/03/30 01:36:58;;;;;;;8.98;4.30;;;5.40;99.90;;;;;;5044952;28;20091;-88
2022/03/30 01:40:06;;;;;;;13.30;5.13;;;5.30;99.90;;;;;;5029793;28;20099;-87
2022/03/30 01:43:32;;;;;;;;;;;;;;;;;;;;;
2022/03/30 01:46:41;;;;;;;11.13;4.80;;;5.40;99.90;;;;;;5042174;28;20053;-87
2022/03/30 01:50:05;;;;;;;12.30;6.00;;;5.40;99.90;;;;;;5055612;28;20524;-87
2022/03/30 01:57:07;;;;;;;10.90;4.28;;;5.50;99.90;;;;;;5055192;28;21031;-87
2022/03/30 02:00:13;;;;;;;12.82;5.68;;;5.10;99.90;;;;;;5002677;28;20065;-86
2022/03/30 02:03:13;;;;;;;12.55;4.60;;;5.50;99.90;;;;;;5050484;28;20052;-88
2022/03/30 02:06:31;;;;;;;6.43;2.60;;;5.50;99.90;;;;;;5049470;28;20105;-89
2022/03/30 02:09:48;;;;;;;3.38;1.65;;;5.50;99.90;;;;;;5051506;28;20044;-86
2022/03/30 02:12:22;;;;;;;3.27;1.13;;;5.60;99.90;;;;;;5049931;28;20495;-86
2022/03/30 02:15:25;;;;;;;2.10;0.70;;;5.60;99.90;;;;;;5048915;28;20064;-87
2022/03/30 02:18:20;;;;;;;1.60;0.40;;;5.60;99.90;;;;;;5053812;28;20071;-88
2022/03/30 02:21:09;;;;;;;1.13;0.45;;;5.60;99.90;;;;;;5078255;28;20160;-87
2022/03/30 02:24:13;;;;;;;0.82;0.45;;;5.60;99.90;;;;;;5094317;28;20076;-88
2022/03/30 02:27:30;;;;;;;2.97;0.38;;;5.60;99.90;;;;;;5075726;28;20036;-87
2022/03/30 02:30:38;;;;;;;0.35;0.35;;;5.50;99.90;;;;;;5088813;28;20055;-88
2022/03/30 02:33:46;;;;;;;0.65;0.40;;;5.50;99.90;;;;;;5090151;28;20044;-88
2022/03/30 02:40:32;;;;;;;1.50;0.38;;;5.40;99.90;;;;;;5089127;28;20181;-87
2022/03/30 02:43:32;;;;;;;0.85;0.40;;;5.40;99.90;;;;;;5053797;28;20055;-88
2022/03/30 02:46:44;;;;;;;;;;;;;;;;;;;;;
2022/03/30 02:49:36;;;;;;;0.68;0.30;;;5.50;99.90;;;;;;5061499;28;20052;-87
2022/03/30 02:52:51;;;;;;;0.77;0.28;;;5.50;99.90;;;;;;5088144;28;20032;-86
2022/03/30 02:56:23;;;;;;;0.13;0.10;;;5.50;99.90;;;;;;5089948;28;20513;-87
2022/03/30 03:03:40;;;;;;;0.22;0.20;;;5.50;99.90;;;;;;5091577;28;20043;-88
2022/03/30 03:06:56;;;;;;;0.10;0.10;;;5.50;99.90;;;;;;5011757;28;20041;-87
2022/03/30 03:10:13;;;;;;;;;;;;;;;;;;;;;
2022/03/30 03:13:43;;;;;;;0.68;0.10;;;5.40;99.90;;;;;;4951387;29;20177;-88
2022/03/30 03:17:04;;;;;;;;;;;;;;;;;;;;;
2022/03/30 03:20:28;;;;;;;;;;;;;;;;;;;;;
2022/03/30 03:23:51;;;;;;;0.10;0.10;;;5.30;99.90;;;;;;4922614;29;20112;-86
2022/03/30 03:26:56;;;;;;;0.57;0.10;;;6.00;99.90;;;;;;4934135;29;20059;-88
2022/03/30 03:30:18;;;;;;;0.10;0.10;;;5.20;99.90;;;;;;4929347;29;20067;-84
2022/03/30 03:33:31;;;;;;;0.15;0.15;;;5.90;99.90;;;;;;4931334;29;20043;-86
2022/03/30 03:36:53;;;;;;;1.65;0.20;;;5.20;99.90;;;;;;4933929;29;20056;-88
2022/03/30 03:40:01;;;;;;;0.45;0.20;;;5.20;99.90;;;;;;4916508;29;20056;-88
2022/03/30 03:43:41;;;;;;;;;;;;;;;;;;;;;
2022/03/30 03:50:47;;;;;;;1.30;0.20;;;5.10;99.90;;;;;;5000169;28;20053;-84
2022/03/30 03:54:06;;;;;;;0.22;0.20;;;5.10;99.90;;;;;;5030801;28;20124;-88
2022/03/30 03:57:06;;;;;;;0.10;0.10;;;5.10;99.90;;;;;;5030665;28;20550;-87
2022/03/30 04:00:27;;;;;;;0.65;0.20;;;5.10;99.90;;;;;;5038794;28;20124;-87
2022/03/30 04:07:13;;;;;;;0.20;0.20;;;4.90;99.90;;;;;;5063275;28;20101;-87
2022/03/30 04:10:30;;;;;;;;;;;;;;;;;;;;;
2022/03/30 04:13:23;;;;;;;;;;;;;;;;;;;;;
2022/03/30 04:20:05;;;;;;;1.13;0.40;;;5.00;99.90;;;;;;5071193;28;19962;-88
2022/03/30 04:23:09;;;;;;;0.65;0.30;;;5.00;99.90;;;;;;5071380;28;20109;-86
2022/03/30 04:30:31;;;;;;;1.33;0.35;;;4.80;99.90;;;;;;5052427;28;20045;-86
2022/03/30 04:33:42;;;;;;;1.17;0.30;;;4.00;99.90;;;;;;5047826;28;20076;-87
2022/03/30 04:41:06;;;;;;;;;;;;;;;;;;;;;
2022/03/30 04:44:25;;;;;;;0.95;0.30;;;4.70;99.90;;;;;;4991026;28;20112;-88
2022/03/30 04:51:29;;;;;;;0.57;0.30;;;4.60;99.90;;;;;;4989902;28;20784;-87
2022/03/30 04:54:47;;;;;;;0.73;0.40;;;5.40;99.90;;;;;;4984265;28;20090;-87
2022/03/30 04:58:20;;;;;;;;;;;;;;;;;;;;;
2022/03/30 05:01:37;;;;;;;;;;;;;;;;;;;;;
2022/03/30 05:05:06;;;;;;;;;;;;;;;;;;;;;
2022/03/30 05:08:40;;;;;;;;;;;;;;;;;;;;;
2022/03/30 05:19:16;;;;;;;0.70;0.32;;;4.60;99.90;;;;;;5049671;28;20528;-88
2022/03/30 05:22:05;;;;;;;0.50;0.30;;;4.30;99.90;;;;;;5053909;28;20135;-87
2022/03/30 05:25:06;;;;;;;1.05;0.40;;;4.40;99.90;;;;;;5055730;28;20049;-84
2022/03/30 05:28:40;;;;;;;0.45;0.25;;;5.00;99.90;;;;;;5092263;28;20414;-86
2022/03/30 05:35:37;;;;;;;3.03;0.57;;;4.20;99.90;;;;;;5088154;28;20039;-87
2022/03/30 05:39:09;;;;;;;;;;;;;;;;;;;;;
2022/03/30 05:42:22;;;;;;;;;;;;;;;;;;;;;
2022/03/30 05:48:41;;;;;;;0.45;0.30;;;4.10;99.90;;;;;;5042263;28;20490;-85
2022/03/30 05:51:50;;;;;;;;;;;;;;;;;;;;;
2022/03/30 05:55:00;;;;;;;1.55;0.70;;;4.10;99.90;;;;;;4976867;28;20045;-85
2022/03/30 06:01:16;;;;;;;1.00;0.25;;;4.10;99.90;;;;;;4993277;28;20101;-87
2022/03/30 06:03:47;;;;;;;0.68;0.40;;;4.10;99.90;;;;;;4974410;28;20039;-87
2022/03/30 06:06:56;;;;;;;0.60;0.40;;;4.10;99.90;;;;;;4991886;28;20053;-87
2022/03/30 06:09:54;;;;;;;0.68;0.50;;;4.10;99.90;;;;;;4989287;28;20049;-87
2022/03/30 06:12:59;;;;;;;0.93;0.45;;;4.10;99.90;;;;;;4987682;28;20069;-86
2022/03/30 06:16:09;;;;;;;5.97;0.50;;;4.10;99.90;;;;;;4989094;28;20093;-87
2022/03/30 06:19:34;;;;;;;0.82;0.40;;;4.20;99.90;;;;;;4993130;28;20099;-88
2022/03/30 06:22:41;;;;;;;0.70;0.40;;;4.80;99.90;;;;;;4975308;28;20046;-86
2022/03/30 06:25:34;;;;;;;0.60;0.30;;;4.30;99.90;;;;;;4981890;28;21439;-87
2022/03/30 06:28:43;;;;;;;1.85;0.52;;;4.40;99.90;;;;;;5030505;28;20059;-86
2022/03/30 06:31:47;;;;;;;2.35;0.40;;;4.20;99.90;;;;;;5074371;28;20089;-86
2022/03/30 06:34:44;;;;;;;2.90;0.35;;;4.90;99.90;;;;;;5079615;28;20143;-86
2022/03/30 06:37:57;;;;;;;2.67;0.52;;;4.50;99.90;;;;;;5090130;28;20036;-87
2022/03/30 06:48:59;;;;;;;2.25;0.50;;;4.80;99.90;;;;;;5091793;28;20131;-84
2022/03/30 06:52:19;;;;;;;3.80;0.60;;;5.10;99.90;;;;;;5055451;28;20169;-84
2022/03/30 06:55:12;;;;;;;1.58;0.68;;;4.90;99.90;;;;;;5084675;28;20048;-84
2022/03/30 06:58:52;;;;;;;;;;;;;;;;;;;;;
2022/03/30 07:12:49;;;;;;;1.33;0.35;;;5.40;99.90;;;;;;4946586;28;20588;-85
2022/03/30 07:19:52;;;;;;;;;;;;;;;;;;;;;
2022/03/30 07:23:46;;;;;;;;;;;;;;;;;;;;;
2022/03/30 07:27:23;;;;;;;1.65;0.43;;;5.90;99.90;;;;;;4870124;29;20073;-87
2022/03/30 07:35:04;;;;;;;6.85;0.43;;;5.10;99.90;;;;;;5077824;28;20118;-84
2022/03/30 07:42:54;;;;;;;0.52;0.28;;;6.10;99.90;;;;;;4877880;29;20056;-83
2022/03/30 07:45:55;;;;;;;4.82;0.52;;;5.90;99.90;;;;;;4853854;29;20113;-82
2022/03/30 07:49:11;;;;;;;;;;;;;;;;;;;;;
2022/03/30 07:52:04;;;;;;;3.65;0.40;;;5.70;99.90;;;;;;4851027;29;20054;-81
2022/03/30 07:55:07;;;;;;;0.63;0.30;;;5.70;99.90;;;;;;4858229;29;20398;-82
2022/03/30 07:58:32;;;;;;;;;;;;;;;;;;;;;
2022/03/30 08:01:19;;;;;;;3.50;0.45;;;5.50;99.90;;;;;;4830069;29;20143;-84
2022/03/30 08:04:39;;;;;;;1.52;0.38;;;5.60;99.90;;;;;;4852265;29;20057;-82
2022/03/30 08:07:36;;;;;;;2.40;0.40;;;5.70;99.90;;;;;;4813550;29;20100;-85
2022/03/30 08:10:28;;;;;;;4.03;0.47;;;5.70;99.90;;;;;;4816742;29;20117;-84
2022/03/30 08:13:13;;;;;;;1.45;0.32;;;5.40;99.90;;;;;;4804153;29;20081;-83
2022/03/30 08:15:54;;;;;;;0.45;0.25;;;5.70;99.90;;;;;;4803069;29;20495;-84
2022/03/30 08:19:11;;;;;;;;;;;;;;;;;;;;;
2022/03/30 08:25:30;;;;;;;1.48;0.50;;;6.00;99.90;;;;;;4852696;29;20037;-82
2022/03/30 08:28:15;;;;;;;0.68;0.30;;;6.10;99.90;;;;;;4872214;29;20523;-82
2022/03/30 08:39:11;;;;;;;0.80;0.30;;;6.40;99.90;;;;;;4891325;29;20610;-83
2022/03/30 08:42:46;;;;;;;;;;;;;;;;;;;;;
2022/03/30 08:45:51;;;;;;;9.93;0.50;;;6.60;99.90;;;;;;4972183;28;20146;-83
2022/03/30 08:48:55;;;;;;;1.70;0.30;;;6.60;99.90;;;;;;4940231;28;20177;-82
2022/03/30 08:51:57;;;;;;;0.70;0.30;;;6.60;99.90;;;;;;4971851;28;20150;-83
2022/03/30 08:55:08;;;;;;;;;;;;;;;;;;;;;
2022/03/30 09:05:34;;;;;;;1.58;0.28;;;6.80;99.90;;;;;;5092831;28;20051;-82
2022/03/30 09:08:33;;;;;;;1.65;0.30;;;6.80;99.90;;;;;;5073101;28;20106;-83
2022/03/30 09:11:48;;;;;;;;;;;;;;;;;;;;;
2022/03/30 09:15:14;;;;;;;3.65;0.30;;;6.90;99.90;;;;;;5092666;28;20505;-85
2022/03/30 09:18:51;;;;;;;;;;;;;;;;;;;;;
2022/03/30 09:21:56;;;;;;;0.20;0.10;;;6.60;99.90;;;;;;5073280;28;20633;-85
2022/03/30 09:25:02;;;;;;;3.25;0.43;;;6.80;99.90;;;;;;5040400;28;20494;-85
2022/03/30 09:28:25;;;;;;;1.20;0.20;;;6.90;99.90;;;;;;5092783;28;20044;-86
2022/03/30 09:31:56;;;;;;;1.08;0.20;;;7.00;99.90;;;;;;5084302;28;20055;-86
2022/03/30 09:38:48;;;;;;;1.08;0.30;;;7.20;99.90;;;;;;5092265;28;20067;-85
2022/03/30 09:42:11;;;;;;;5.40;1.40;;;7.90;99.90;;;;;;5076367;28;20599;-86
2022/03/30 09:45:39;;;;;;;0.55;0.32;;;7.60;99.90;;;;;;5062657;28;20170;-85
2022/03/30 09:48:54;;;;;;;3.88;0.50;;;7.80;99.90;;;;;;5091115;28;20173;-85
2022/03/30 09:52:05;;;;;;;1.58;0.25;;;7.90;99.90;;;;;;5092311;28;20101;-86
2022/03/30 09:55:13;;;;;;;1.70;0.30;;;7.90;99.90;;;;;;5092630;28;20060;-85
2022/03/30 09:58:29;;;;;;;2.58;0.38;;;7.90;99.90;;;;;;5086172;28;20047;-85
2022/03/30 10:01:37;;;;;;;1.42;0.50;;;7.80;99.90;;;;;;5074158;28;20039;-86
2022/03/30 10:04:40;;;;;;;2.05;0.30;;;7.80;99.90;;;;;;5072354;28;20057;-86
2022/03/30 10:07:46;;;;;;;6.38;0.50;;;7.80;99.90;;;;;;5059455;28;20140;-86
2022/03/30 10:10:53;;;;;;;1.30;0.38;;;7.70;99.90;;;;;;5096048;28;20047;-86
2022/03/30 10:13:55;;;;;;;2.22;0.60;;;7.60;99.90;;;;;;5095764;28;20447;-85
2022/03/30 10:17:05;;;;;;;;;;;;;;;;;;;;;
2022/03/30 10:20:24;;;;;;;1.95;0.60;;;7.90;99.90;;;;;;5095959;28;20067;-85
2022/03/30 10:24:06;;;;;;;;;;;;;;;;;;;;;
2022/03/30 10:30:48;;;;;;;;;;;;;;;;;;;;;
2022/03/30 10:33:57;;;;;;;1.38;0.40;;;7.90;99.90;;;;;;5077112;28;20047;-85
2022/03/30 10:37:36;;;;;;;1.27;0.35;;;7.80;99.90;;;;;;5060387;28;20048;-85
2022/03/30 10:40:58;;;;;;;2.25;0.20;;;7.80;99.90;;;;;;5073620;28;20083;-85
2022/03/30 10:43:54;;;;;;;;;;;7.90;99.90;;;;;;5070787;28;20074;-84
2022/03/30 10:46:56;;;;;;;1.23;0.30;;;7.80;99.90;;;;;;5072556;28;20317;-88
2022/03/30 10:50:10;;;;;;;1.48;0.20;;;7.70;99.90;;;;;;5090579;28;20044;-84
2022/03/30 10:53:48;;;;;;;;;;;;;;;;;;;;;
2022/03/30 10:56:18;;;;;;;1.45;0.32;;;8.10;99.90;;;;;;5022838;28;20077;-84
2022/03/30 10:59:00;;;;;;;1.23;0.22;;;8.00;99.90;;;;;;5048976;28;20045;-83
2022/03/30 11:01:34;;;;;;;1.25;0.20;;;8.10;99.90;;;;;;5035754;28;20099;-84
2022/03/30 11:04:21;;;;;;;4.38;0.52;;;8.30;99.90;;;;;;5047876;28;20045;-82
2022/03/30 11:07:15;;;;;;;1.52;0.30;;;8.40;99.90;;;;;;5036528;28;20120;-82
2022/03/30 11:09:43;;;;;;;1.48;0.22;;;8.40;99.90;;;;;;5043450;28;20562;-83
2022/03/30 11:12:13;;;;;;;3.55;0.25;;;8.50;99.90;;;;;;5086656;22;20055;-84
2022/03/30 11:15:05;;;;;;;1.35;0.20;;;8.60;99.90;;;;;;5099241;27;20640;-86
2022/03/30 11:17:40;;;;;;;1.65;0.30;;;8.60;99.90;;;;;;5112609;27;20036;-83
2022/03/30 11:20:44;;;;;;;2.53;0.32;;;8.70;99.90;;;;;;5123252;27;20501;-83
2022/03/30 11:23:20;;;;;;;1.40;0.30;;;9.00;99.90;;;;;;5025575;28;20060;-84
2022/03/30 11:25:59;;;;;;;2.60;0.20;;;9.00;99.90;;;;;;5051042;28;20178;-87
2022/03/30 11:28:50;;;;;;;;;;;;;;;;;;;;;
2022/03/30 11:31:41;;;;;;;2.13;0.40;;;9.10;99.90;;;;;;5049690;28;20124;-83
2022/03/30 11:35:04;;;;;;;2.47;0.40;;;9.20;99.90;;;;;;5048131;28;20402;-84
2022/03/30 11:38:06;;;;;;;1.45;0.20;;;9.10;99.90;;;;;;5048610;28;20041;-85
2022/03/30 11:40:55;;;;;;;;;;;9.20;99.90;;;;;;5049012;28;20048;-85
2022/03/30 11:47:11;;;;;;;2.47;0.50;;;9.70;99.90;;;;;;5052304;28;20047;-83
2022/03/30 11:57:29;;;;;;;1.00;0.30;;;8.90;99.90;;;;;;5044785;28;20106;-84
2022/03/30 12:00:19;;;;;;;1.13;0.32;;;9.00;99.90;;;;;;5033784;28;20112;-84
2022/03/30 12:07:00;;;;;;;0.63;0.63;;;9.40;99.90;;;;;;5113185;23;20052;-84
2022/03/30 12:10:39;;;;;;;;;;;;;;;;;;;;;
2022/03/30 12:13:43;;;;;;;3.83;0.40;;;9.50;99.90;;;;;;5137179;23;20071;-87
2022/03/30 12:17:14;;;;;;;;;;;;;;;;;;;;;
2022/03/30 12:20:48;;;;;;;0.63;0.30;;;9.10;99.90;;;;;;5051177;28;20084;-84
2022/03/30 12:24:08;;;;;;;;;;;;;;;;;;;;;
2022/03/30 12:26:58;;;;;;;1.38;0.20;;;8.80;99.90;;;;;;5048207;28;20080;-84
2022/03/30 12:37:54;;;;;;;2.78;0.38;;;9.00;99.90;;;;;;5010350;28;20100;-87
2022/03/30 12:43:33;;;;;;;1.88;0.30;;;9.40;99.90;;;;;;5137510;22;20121;-84
2022/03/30 12:46:44;;;;;;;3.53;0.40;;;9.40;99.90;;;;;;5088376;28;20667;-87
2022/03/30 12:49:41;;;;;;;2.72;0.25;;;9.60;99.90;;;;;;5062043;28;20063;-84
2022/03/30 12:57:07;;;;;;;0.82;0.30;;;9.60;99.90;;;;;;5014943;28;20573;-84
2022/03/30 13:00:31;;;;;;;1.67;0.30;;;9.50;99.90;;;;;;5014947;28;20081;-86
2022/03/30 13:10:44;;;;;;;0.50;0.38;;;10.00;99.90;;;;;;5016694;28;20082;-85
2022/03/30 13:13:50;;;;;;;1.23;0.20;;;9.90;99.90;;;;;;5021145;28;20068;-84
2022/03/30 13:16:46;;;;;;;1.80;0.30;;;9.80;99.90;;;;;;4999653;28;20082;-82
2022/03/30 13:19:46;;;;;;;1.00;0.30;;;9.40;99.90;;;;;;5002364;28;20043;-83
2022/03/30 13:22:54;;;;;;;1.92;0.30;;;9.50;99.90;;;;;;5001907;28;20050;-84
2022/03/30 13:25:59;;;;;;;0.95;0.30;;;9.40;99.90;;;;;;4984801;28;20050;-82
2022/03/30 13:29:01;;;;;;;0.38;0.15;;;9.00;99.90;;;;;;5017693;28;20136;-84
2022/03/30 13:32:18;;;;;;;;;;;;;;;;;;;;;
2022/03/30 13:35:15;;;;;;;0.75;0.20;;;9.90;99.90;;;;;;5074868;28;20059;-82
2022/03/30 13:38:13;;;;;;;1.10;0.20;;;9.30;99.90;;;;;;5074339;28;20044;-82
2022/03/30 13:41:10;;;;;;;;;;;;;;;;;;;;;
2022/03/30 13:44:12;;;;;;;;;;;;;;;;;;;;;
2022/03/30 13:47:25;;;;;;;1.33;0.20;;;9.30;99.90;;;;;;5103439;28;20075;-87
2022/03/30 13:54:20;;;;;;;1.58;0.30;;;9.50;99.90;;;;;;5109062;28;20043;-88
2022/03/30 13:57:08;;;;;;;1.08;0.32;;;9.30;99.90;;;;;;5071295;22;20485;-85
2022/03/30 13:59:42;;;;;;;1.52;0.20;;;9.60;99.30;;;;;;5053033;28;20348;-84
2022/03/30 14:02:14;;;;;;;1.00;0.40;;;9.50;99.90;;;;;;5057067;28;20399;-85
2022/03/30 14:04:46;;;;;;;1.02;0.25;;;9.60;99.90;;;;;;5057475;28;20040;-86
2022/03/30 14:07:21;;;;;;;0.68;0.10;;;9.60;99.90;;;;;;5040378;28;20498;-88
2022/03/30 14:09:55;;;;;;;0.98;0.17;;;9.70;99.90;;;;;;5075288;28;20048;-88
2022/03/30 14:13:11;;;;;;;3.60;0.35;;;9.70;99.90;;;;;;5082654;28;20035;-87
2022/03/30 14:15:43;;;;;;;0.30;0.20;;;9.50;99.90;;;;;;5058532;28;20091;-88
2022/03/30 14:18:12;;;;;;;1.35;0.35;;;9.50;99.90;;;;;;5070441;28;20495;-87
2022/03/30 14:20:39;;;;;;;0.98;0.20;;;9.40;99.90;;;;;;5049447;28;20040;-88
2022/03/30 14:23:07;;;;;;;1.83;0.30;;;9.30;99.90;;;;;;5057707;28;20436;-89
2022/03/30 14:25:36;;;;;;;2.97;0.40;;;9.30;99.90;;;;;;5074008;28;20403;-90
2022/03/30 14:28:09;;;;;;;0.98;0.40;;;9.50;99.90;;;;;;5056019;28;20052;-89
2022/03/30 14:30:41;;;;;;;0.90;0.30;;;9.50;99.20;;;;;;5082687;28;20040;-89
2022/03/30 14:36:55;;;;;;;2.90;0.40;;;9.50;99.00;;;;;;5073793;28;20057;-89
2022/03/30 14:39:26;;;;;;;2.80;0.40;;;9.30;98.60;;;;;;5074115;28;20052;-89
2022/03/30 14:41:53;;;;;;;1.70;0.20;;;9.20;99.70;;;;;;5040518;28;20178;-89
2022/03/30 14:44:20;;;;;;;0.70;0.20;;;9.20;99.90;;;;;;5056522;28;20051;-89
2022/03/30 14:46:48;;;;;;;1.23;0.22;;;9.00;99.90;;;;;;5072605;28;20124;-87
2022/03/30 14:49:20;;;;;;;1.52;0.20;;;9.10;99.90;;;;;;5074074;28;20407;-89
2022/03/30 14:51:53;;;;;;;2.95;0.35;;;9.10;99.60;;;;;;5073834;28;20033;-89
2022/03/30 14:54:21;;;;;;;1.75;0.25;;;9.00;99.90;;;;;;5074497;28;20047;-89
2022/03/30 14:56:50;;;;;;;2.28;0.20;;;8.80;99.90;;;;;;5075774;28;20054;-88
2022/03/30 14:59:18;;;;;;;1.65;0.20;;;8.70;99.90;;;;;;5082986;28;20048;-86
2022/03/30 15:01:46;;;;;;;1.02;0.20;;;8.70;99.90;;;;;;5074386;28;20152;-90
2022/03/30 15:04:15;;;;;;;0.77;0.20;;;8.60;99.90;;;;;;5082683;28;20044;-87
2022/03/30 15:06:43;;;;;;;2.45;0.40;;;8.90;99.90;;;;;;5088275;28;20078;-89
2022/03/30 15:09:09;;;;;;;0.45;0.20;;;8.60;99.90;;;;;;5083497;28;20043;-89
2022/03/30 15:11:38;;;;;;;0.85;0.13;;;8.60;99.90;;;;;;5061784;28;20580;-90
2022/03/30 15:14:08;;;;;;;0.50;0.20;;;8.70;99.90;;;;;;5070968;28;20052;-86
2022/03/30 15:16:34;;;;;;;1.85;0.20;;;8.60;99.90;;;;;;5076040;28;20541;-89
2022/03/30 15:19:04;;;;;;;1.75;0.20;;;8.50;99.90;;;;;;5070564;28;20044;-86
2022/03/30 15:21:53;;;;;;;1.75;0.40;;;8.40;99.90;;;;;;5043154;28;20040;-88
2022/03/30 15:25:04;;;;;;;;;;;;;;;;;;;;;
2022/03/30 15:28:36;;;;;;;1.65;0.20;;;8.30;99.90;;;;;;5065331;28;20055;-86
2022/03/30 15:31:39;;;;;;;0.47;0.20;;;8.20;99.90;;;;;;5027670;28;20058;-86
2022/03/30 15:34:37;;;;;;;1.38;0.20;;;8.10;99.90;;;;;;5017976;28;20050;-85
2022/03/30 15:37:52;;;;;;;1.10;0.20;;;8.20;99.90;;;;;;5007126;28;20085;-85
2022/03/30 15:41:15;;;;;;;;;;;;;;;;;;;;;
2022/03/30 15:44:19;;;;;;;0.88;0.30;;;8.10;99.90;;;;;;5007215;28;20045;-89
2022/03/30 15:47:24;;;;;;;2.03;0.30;;;8.00;99.90;;;;;;5023347;28;20091;-88
2022/03/30 15:50:25;;;;;;;1.58;0.30;;;8.00;99.90;;;;;;5032524;28;20045;-87
2022/03/30 15:53:50;;;;;;;1.27;0.20;;;7.90;99.90;;;;;;5025988;28;20083;-89
2022/03/30 15:57:12;;;;;;;1.55;0.25;;;8.00;99.90;;;;;;5047190;28;20032;-87
2022/03/30 16:00:29;;;;;;;3.05;0.40;;;8.00;99.90;;;;;;5015284;28;20156;-86
2022/03/30 16:03:19;;;;;;;1.17;0.20;;;8.00;99.90;;;;;;5030720;28;20451;-88
2022/03/30 16:06:12;;;;;;;6.57;0.40;;;7.60;99.90;;;;;;5038323;28;20041;-86
2022/03/30 16:09:09;;;;;;;2.05;0.38;;;7.60;99.90;;;;;;5056301;28;20176;-84
2022/03/30 16:12:19;;;;;;;1.67;0.40;;;7.50;99.90;;;;;;5068012;28;20048;-85
2022/03/30 16:18:55;;;;;;;3.20;0.30;;;7.50;99.90;;;;;;5061340;28;20037;-88
2022/03/30 16:21:57;;;;;;;3.75;0.82;;;7.60;99.90;;;;;;5037918;28;20107;-83
2022/03/30 16:24:52;;;;;;;3.60;0.88;;;8.00;99.90;;;;;;5059041;28;20057;-84
2022/03/30 16:27:57;;;;;;;3.42;0.30;;;7.50;99.90;;;;;;5053613;28;20041;-90
2022/03/30 16:30:52;;;;;;;0.68;0.20;;;7.40;99.90;;;;;;5050663;28;20045;-88
2022/03/30 16:33:49;;;;;;;0.57;0.20;;;7.30;99.90;;;;;;5060592;28;20414;-88
2022/03/30 16:36:45;;;;;;;0.98;0.20;;;7.00;99.90;;;;;;5050866;28;20106;-87
2022/03/30 16:39:53;;;;;;;4.68;0.40;;;7.00;99.90;;;;;;5078381;28;20044;-85
2022/03/30 16:42:57;;;;;;;2.17;0.38;;;7.10;99.90;;;;;;5069904;28;20044;-87
2022/03/30 16:45:54;;;;;;;3.15;0.50;;;7.00;99.90;;;;;;5066800;28;20052;-86
2022/03/30 16:48:28;;;;;;;1.00;0.30;;;7.00;99.90;;;;;;5067826;28;20044;-85
2022/03/30 16:51:13;;;;;;;0.50;0.20;;;6.90;99.90;;;;;;5072111;28;20462;-88
2022/03/30 16:54:30;;;;;;;;;;;;;;;;;;;;;
2022/03/30 16:57:29;;;;;;;2.30;0.28;;;6.90;99.90;;;;;;5064946;28;20114;-87
2022/03/30 17:00:19;;;;;;;1.88;0.20;;;6.80;99.90;;;;;;5066962;28;20064;-87
2022/03/30 17:03:17;;;;;;;0.47;0.15;;;6.70;99.90;;;;;;5053272;28;20044;-87
2022/03/30 17:06:37;;;;;;;0.28;0.20;;;6.60;99.90;;;;;;5072156;28;20041;-85
2022/03/30 17:12:49;;;;;;;0.55;0.20;;;6.50;99.90;;;;;;5072676;28;20040;-88
2022/03/30 17:15:32;;;;;;;0.38;0.20;;;6.40;99.90;;;;;;5046937;28;20040;-86
2022/03/30 17:17:58;;;;;;;0.28;0.17;;;6.40;99.90;;;;;;5068394;28;20036;-86
2022/03/30 17:20:46;;;;;;;0.95;0.20;;;6.30;99.90;;;;;;5062556;28;20044;-85
2022/03/30 17:23:31;;;;;;;1.40;0.20;;;6.30;99.90;;;;;;5066711;28;20067;-85
2022/03/30 17:26:19;;;;;;;1.88;0.20;;;6.20;99.90;;;;;;5054406;28;20041;-85
2022/03/30 17:29:17;;;;;;;2.17;0.30;;;6.20;99.90;;;;;;5077873;28;20032;-88
2022/03/30 17:36:39;;;;;;;3.03;0.20;;;6.10;99.90;;;;;;5079347;28;20086;-86
2022/03/30 17:39:34;;;;;;;0.63;0.17;;;6.00;99.90;;;;;;4970694;28;20054;-84
2022/03/30 17:42:52;;;;;;;0.20;0.20;;;5.90;99.90;;;;;;4990097;28;20059;-84
2022/03/30 17:45:57;;;;;;;1.02;0.10;;;5.80;99.90;;;;;;4991892;28;20050;-89
2022/03/30 17:52:20;;;;;;;1.38;0.50;;;5.80;99.90;;;;;;4972537;28;20054;-83
2022/03/30 17:55:37;;;;;;;1.30;1.05;;;5.70;99.90;;;;;;4993812;28;20078;-85
2022/03/30 17:58:41;;;;;;;0.82;0.30;;;5.70;99.90;;;;;;4991444;28;20046;-84
2022/03/30 18:01:57;;;;;;;;;;;;;;;;;;;;;
2022/03/30 18:05:04;;;;;;;;;;;;;;;;;;;;;
2022/03/30 18:08:05;;;;;;;0.10;0.10;;;5.50;99.90;;;;;;5011007;28;20089;-83
2022/03/30 18:11:10;;;;;;;0.28;0.20;;;5.40;99.90;;;;;;4997624;28;20440;-85
2022/03/30 18:14:32;;;;;;;;;;;;;;;;;;;;;
2022/03/30 18:17:37;;;;;;;1.40;0.25;;;5.40;99.90;;;;;;5090880;28;20071;-85
2022/03/30 18:21:12;;;;;;;0.57;0.20;;;5.20;99.90;;;;;;5073680;28;20063;-86
2022/03/30 18:24:12;;;;;;;0.40;0.20;;;5.20;99.90;;;;;;5009796;28;20085;-86
2022/03/30 18:26:52;;;;;;;0.20;0.20;;;5.10;99.90;;;;;;5007493;28;20543;-85
2022/03/30 18:29:54;;;;;;;0.20;0.20;;;5.20;99.90;;;;;;5011039;28;20052;-86
2022/03/30 18:32:58;;;;;;;0.55;0.17;;;5.10;99.90;;;;;;5032207;28;20057;-84
2022/03/30 18:36:11;;;;;;;0.35;0.15;;;5.10;99.90;;;;;;5028562;28;20450;-83
2022/03/30 18:39:32;;;;;;;0.57;0.20;;;5.10;99.90;;;;;;5028571;28;20061;-86
2022/03/30 18:43:01;;;;;;;1.35;0.40;;;5.00;99.90;;;;;;5033136;28;20153;-82
2022/03/30 18:46:18;;;;;;;;;;;;;;;;;;;;;
2022/03/30 18:49:32;;;;;;;;;;;;;;;;;;;;;
2022/03/30 18:52:38;;;;;;;0.90;0.20;;;5.00;99.90;;;;;;5027211;28;20143;-83
2022/03/30 18:56:09;;;;;;;0.63;0.20;;;5.00;99.90;;;;;;5032351;28;20530;-86
2022/03/30 18:59:18;;;;;;;1.40;0.20;;;4.90;99.90;;;;;;5053861;28;20054;-87
2022/03/30 19:13:16;;;;;;;0.22;0.22;;;5.00;99.90;;;;;;5090644;28;20485;-87
2022/03/30 19:16:01;;;;;;;0.93;0.20;;;4.90;99.90;;;;;;5067777;28;20403;-88
2022/03/30 19:19:17;;;;;;;0.47;0.20;;;4.90;99.90;;;;;;5042312;28;20037;-88
2022/03/30 19:22:34;;;;;;;;;;;;;;;;;;;;;
2022/03/30 19:25:25;;;;;;;0.20;0.15;;;4.70;99.90;;;;;;5089140;28;20044;-89
2022/03/30 19:28:22;;;;;;;0.70;0.20;;;4.70;99.90;;;;;;5093402;28;20036;-91
2022/03/30 19:35:34;;;;;;;0.30;0.20;;;4.60;99.90;;;;;;5079881;28;20409;-90
2022/03/30 19:38:50;;;;;;;;;;;;;;;;;;;;;
2022/03/30 19:42:20;;;;;;;;;;;;;;;;;;;;;
2022/03/30 19:45:32;;;;;;;2.63;0.30;;;4.50;99.90;;;;;;5080214;28;20044;-89
2022/03/30 19:48:32;;;;;;;;;;;4.50;99.90;;;;;;5087533;28;20115;-91
2022/03/30 19:51:46;;;;;;;;;;;;;;;;;;;;;
2022/03/30 19:54:53;;;;;;;0.80;0.20;;;4.40;99.90;;;;;;5087370;28;19927;-87
2022/03/30 20:06:32;;;;;;;;;;;;;;;;;;;;;
2022/03/30 20:09:27;;;;;;;1.10;0.28;;;4.30;99.90;;;;;;5065289;28;20041;-90
2022/03/30 20:12:35;;;;;;;0.43;0.20;;;4.30;99.90;;;;;;5052573;28;20129;-90
2022/03/30 20:15:18;;;;;;;2.35;0.30;;;4.30;99.90;;;;;;5030156;28;20040;-90
2022/03/30 20:18:19;;;;;;;0.52;0.13;;;4.30;99.90;;;;;;5072369;28;20556;-90
2022/03/30 20:21:49;;;;;;;0.47;0.40;;;4.30;99.90;;;;;;5071378;28;20048;-90
2022/03/30 20:28:28;;;;;;;0.20;0.20;;;4.20;99.90;;;;;;5073080;28;20101;-90
2022/03/30 20:31:42;;;;;;;1.65;0.40;;;4.20;99.90;;;;;;5014028;28;20413;-88
2022/03/30 20:35:12;;;;;;;;;;;;;;;;;;;;;
2022/03/30 20:38:26;;;;;;;0.13;0.10;;;4.20;99.90;;;;;;5051673;28;20486;-89
2022/03/30 20:42:00;;;;;;;0.13;0.13;;;4.10;99.90;;;;;;5070590;28;20495;-89
2022/03/30 20:45:24;;;;;;;;;;;;;;;;;;;;;
2022/03/30 20:48:42;;;;;;;;;;;;;;;;;;;;;
2022/03/30 20:52:05;;;;;;;0.15;0.15;;;4.10;99.90;;;;;;5051050;28;20044;-88
2022/03/30 20:55:23;;;;;;;0.30;0.20;;;4.10;99.90;;;;;;5071025;28;20043;-91
2022/03/30 20:58:36;;;;;;;0.55;0.20;;;4.10;99.90;;;;;;5068401;28;20052;-91
2022/03/30 21:01:59;;;;;;;0.43;0.20;;;4.10;99.90;;;;;;5071057;28;20041;-91
2022/03/30 21:05:22;;;;;;;0.75;0.30;;;4.10;99.90;;;;;;5077834;28;20060;-87
2022/03/30 21:08:36;;;;;;;3.05;0.50;;;4.00;99.90;;;;;;5088489;28;20052;-89